SDO956 LFPO-MDPC
Flight info
| Callsign | SDO956 |
|---|---|
| Flight time | N/A |
| Altitude | 34000 |
| Route | LGL UN491 OTOFE DCT LARLA DCT RATKA/M084F340 DCT SOMAX DCT 50N020W 49N030W 45N040W 40N045W/M084F360 35N050W/M084F380 30N055W 25N061W/M084F400 DCT KEEKA/N0482F400 M597 BETIR BETIR1W |
| Aircraft | MD11/H-SDE1E2E3FGHIJ2J3J4J5M1RWXY/LB1D1 |
Departure
| Time | N/A |
|---|---|
| Airport | Paris-Orly Airport (LFPO) |
Arrival
| Time | 2026-03-22 23:43 |
|---|---|
| Airport | Punta Cana International Airport (MDPC) |
| Time | Latitude | Longitude | Altitude | Speed | Heading |
|---|---|---|---|---|---|
| 2026-03-22 18:39 | 48.45711 | -22.56297 | 34211 ft | 449 kts | 251° |
| 2026-03-22 18:39 | 48.43233 | -22.64891 | 34211 ft | 449 kts | 251° |
| 2026-03-22 18:40 | 48.40730 | -22.73541 | 34207 ft | 450 kts | 251° |
| 2026-03-22 18:40 | 48.38223 | -22.82173 | 34211 ft | 450 kts | 251° |
| 2026-03-22 18:41 | 48.35706 | -22.90806 | 34213 ft | 450 kts | 251° |
| 2026-03-22 18:41 | 48.33186 | -22.99419 | 34210 ft | 451 kts | 251° |
| 2026-03-22 18:42 | 48.30654 | -23.08045 | 34212 ft | 451 kts | 251° |
| 2026-03-22 18:42 | 48.28132 | -23.16605 | 34212 ft | 451 kts | 251° |
| 2026-03-22 18:43 | 48.25584 | -23.25220 | 34211 ft | 451 kts | 251° |
| 2026-03-22 18:43 | 48.23025 | -23.33848 | 34209 ft | 452 kts | 251° |
| 2026-03-22 18:44 | 48.20479 | -23.42396 | 34208 ft | 452 kts | 250° |
| 2026-03-22 18:44 | 48.17880 | -23.51002 | 34225 ft | 452 kts | 250° |
| 2026-03-22 18:45 | 48.15268 | -23.59581 | 34208 ft | 452 kts | 250° |
| 2026-03-22 18:45 | 48.12672 | -23.68167 | 34205 ft | 452 kts | 250° |
| 2026-03-22 18:46 | 48.10090 | -23.76714 | 34212 ft | 452 kts | 250° |
| 2026-03-22 18:46 | 48.07499 | -23.85266 | 34217 ft | 452 kts | 250° |
| 2026-03-22 18:47 | 48.04894 | -23.93834 | 34220 ft | 452 kts | 250° |
| 2026-03-22 18:47 | 48.02289 | -24.02372 | 34216 ft | 452 kts | 250° |
| 2026-03-22 18:48 | 47.99675 | -24.10910 | 34216 ft | 452 kts | 250° |
| 2026-03-22 18:48 | 47.97050 | -24.19453 | 34215 ft | 452 kts | 250° |
| 2026-03-22 18:49 | 47.94431 | -24.27947 | 34213 ft | 451 kts | 249° |
| 2026-03-22 18:49 | 47.91806 | -24.36435 | 34217 ft | 451 kts | 249° |
| 2026-03-22 18:50 | 47.89170 | -24.44927 | 34215 ft | 451 kts | 249° |
| 2026-03-22 18:50 | 47.86530 | -24.53402 | 34214 ft | 451 kts | 249° |
| 2026-03-22 18:51 | 47.83889 | -24.61803 | 34208 ft | 450 kts | 249° |
| 2026-03-22 18:51 | 47.81204 | -24.70231 | 34211 ft | 450 kts | 249° |
| 2026-03-22 18:52 | 47.78535 | -24.78657 | 34210 ft | 450 kts | 249° |
| 2026-03-22 18:52 | 47.75870 | -24.87092 | 34215 ft | 450 kts | 249° |
| 2026-03-22 18:53 | 47.73206 | -24.95507 | 34214 ft | 450 kts | 249° |
| 2026-03-22 18:53 | 47.70537 | -25.03910 | 34214 ft | 450 kts | 249° |
| 2026-03-22 18:54 | 47.67864 | -25.12294 | 34212 ft | 450 kts | 249° |
| 2026-03-22 18:54 | 47.65180 | -25.20683 | 34215 ft | 449 kts | 249° |
| 2026-03-22 18:55 | 47.62508 | -25.29008 | 34213 ft | 449 kts | 249° |
| 2026-03-22 18:55 | 47.59817 | -25.37364 | 34216 ft | 449 kts | 249° |
| 2026-03-22 18:56 | 47.57119 | -25.45717 | 34215 ft | 449 kts | 249° |
| 2026-03-22 18:56 | 47.54419 | -25.54047 | 34214 ft | 449 kts | 249° |
| 2026-03-22 18:57 | 47.51728 | -25.62322 | 34211 ft | 448 kts | 249° |
| 2026-03-22 18:57 | 47.49011 | -25.70637 | 34211 ft | 448 kts | 248° |
| 2026-03-22 18:58 | 47.46258 | -25.78917 | 34212 ft | 448 kts | 248° |
| 2026-03-22 18:58 | 47.43518 | -25.87187 | 34215 ft | 448 kts | 248° |
| 2026-03-22 18:59 | 47.41248 | -25.94061 | 34213 ft | 448 kts | 248° |
| 2026-03-22 18:59 | 47.38524 | -26.02308 | 34213 ft | 448 kts | 248° |
| 2026-03-22 19:00 | 47.35777 | -26.10603 | 34208 ft | 448 kts | 248° |
| 2026-03-22 19:00 | 47.33040 | -26.18838 | 34210 ft | 448 kts | 248° |
| 2026-03-22 19:01 | 47.24799 | -26.43469 | 34227 ft | 447 kts | 248° |
| 2026-03-22 19:01 | 47.13709 | -26.76253 | 34228 ft | 446 kts | 248° |
| 2026-03-22 19:02 | 47.02477 | -27.08818 | 34207 ft | 446 kts | 247° |
| 2026-03-22 19:02 | 46.91219 | -27.41284 | 34212 ft | 446 kts | 246° |
| 2026-03-22 19:03 | 46.79885 | -27.73561 | 34192 ft | 447 kts | 246° |
| 2026-03-22 19:03 | 46.68467 | -28.05483 | 34209 ft | 447 kts | 246° |
| 2026-03-22 19:04 | 46.56914 | -28.37593 | 34217 ft | 446 kts | 246° |
| 2026-03-22 19:04 | 46.45304 | -28.69484 | 34175 ft | 446 kts | 245° |
| 2026-03-22 19:05 | 46.33508 | -29.01397 | 34213 ft | 445 kts | 245° |
| 2026-03-22 19:05 | 46.21819 | -29.32660 | 34174 ft | 444 kts | 245° |
| 2026-03-22 19:06 | 46.10007 | -29.63983 | 34210 ft | 443 kts | 244° |
| 2026-03-22 19:06 | 45.98120 | -29.95147 | 34180 ft | 444 kts | 244° |
| 2026-03-22 19:07 | 45.86096 | -30.26121 | 34206 ft | 443 kts | 244° |
| 2026-03-22 19:07 | 45.74077 | -30.56929 | 34167 ft | 445 kts | 243° |
| 2026-03-22 19:08 | 45.61924 | -30.87731 | 34195 ft | 444 kts | 243° |
| 2026-03-22 19:08 | 45.49632 | -31.18377 | 34177 ft | 445 kts | 242° |
| 2026-03-22 19:09 | 45.37303 | -31.48925 | 34173 ft | 445 kts | 242° |
| 2026-03-22 19:09 | 45.24897 | -31.79344 | 34175 ft | 446 kts | 242° |
| 2026-03-22 19:10 | 45.12341 | -32.09758 | 34177 ft | 446 kts | 241° |
| 2026-03-22 19:10 | 44.99661 | -32.40056 | 34176 ft | 447 kts | 241° |
| 2026-03-22 19:11 | 44.86934 | -32.70270 | 34175 ft | 447 kts | 240° |
| 2026-03-22 19:11 | 44.74130 | -33.00342 | 34171 ft | 447 kts | 240° |
| 2026-03-22 19:12 | 44.61281 | -33.30042 | 34158 ft | 447 kts | 239° |
| 2026-03-22 19:12 | 44.48355 | -33.59778 | 34141 ft | 448 kts | 239° |
| 2026-03-22 19:13 | 44.35290 | -33.89518 | 34176 ft | 447 kts | 239° |
| 2026-03-22 19:13 | 44.22151 | -34.18989 | 34174 ft | 446 kts | 238° |
| 2026-03-22 19:14 | 44.08951 | -34.48407 | 34145 ft | 446 kts | 238° |
| 2026-03-22 19:14 | 43.95813 | -34.77412 | 34129 ft | 447 kts | 237° |
| 2026-03-22 19:15 | 43.82487 | -35.06520 | 34127 ft | 448 kts | 237° |
| 2026-03-22 19:15 | 43.75822 | -35.20857 | 34148 ft | 447 kts | 237° |
| 2026-03-22 19:16 | 43.72466 | -35.28105 | 34147 ft | 447 kts | 237° |
| 2026-03-22 19:16 | 43.61272 | -35.52176 | 34135 ft | 447 kts | 236° |
| 2026-03-22 19:17 | 43.47771 | -35.80942 | 34124 ft | 448 kts | 236° |
| 2026-03-22 19:17 | 43.34152 | -36.09583 | 34160 ft | 447 kts | 236° |
| 2026-03-22 19:18 | 43.20550 | -36.37963 | 34164 ft | 446 kts | 236° |
| 2026-03-22 19:18 | 43.06863 | -36.66293 | 34127 ft | 445 kts | 235° |
| 2026-03-22 19:19 | 42.93115 | -36.94476 | 34121 ft | 446 kts | 235° |
| 2026-03-22 19:19 | 42.79257 | -37.22487 | 34129 ft | 445 kts | 235° |
| 2026-03-22 19:20 | 42.65349 | -37.50471 | 34122 ft | 445 kts | 235° |
| 2026-03-22 19:20 | 42.51467 | -37.78143 | 34155 ft | 443 kts | 236° |
| 2026-03-22 19:21 | 42.37515 | -38.05577 | 34108 ft | 444 kts | 236° |
| 2026-03-22 19:21 | 42.23531 | -38.32946 | 34149 ft | 443 kts | 236° |
| 2026-03-22 19:22 | 42.09393 | -38.60371 | 34095 ft | 445 kts | 236° |
| 2026-03-22 19:22 | 41.95265 | -38.87468 | 34148 ft | 443 kts | 236° |
| 2026-03-22 19:23 | 41.81058 | -39.14477 | 34120 ft | 442 kts | 236° |
| 2026-03-22 19:23 | 41.66897 | -39.41224 | 34095 ft | 443 kts | 236° |
| 2026-03-22 19:24 | 41.52647 | -39.67903 | 34101 ft | 442 kts | 236° |
| 2026-03-22 19:24 | 41.38160 | -39.94676 | 34098 ft | 442 kts | 236° |
| 2026-03-22 19:25 | 41.23857 | -40.20997 | 34104 ft | 441 kts | 235° |
| 2026-03-22 19:25 | 41.09390 | -40.47394 | 34133 ft | 440 kts | 235° |
| 2026-03-22 19:26 | 40.94858 | -40.73588 | 34167 ft | 439 kts | 235° |
| 2026-03-22 19:26 | 40.73065 | -41.12590 | 34130 ft | 440 kts | 235° |
| 2026-03-22 19:27 | 40.58565 | -41.38282 | 34137 ft | 438 kts | 234° |
| 2026-03-22 19:27 | 40.43910 | -41.63935 | 34147 ft | 437 kts | 234° |
| 2026-03-22 19:28 | 40.38746 | -41.72953 | 34101 ft | 439 kts | 234° |
| 2026-03-22 19:28 | 40.35078 | -41.79349 | 34102 ft | 438 kts | 234° |
| 2026-03-22 19:29 | 40.31412 | -41.85730 | 34121 ft | 438 kts | 234° |
| 2026-03-22 19:29 | 40.27769 | -41.92056 | 34097 ft | 438 kts | 234° |
| 2026-03-22 19:30 | 40.24100 | -41.98413 | 34097 ft | 437 kts | 234° |
| 2026-03-22 19:30 | 40.20426 | -42.04768 | 34117 ft | 437 kts | 234° |
| 2026-03-22 19:31 | 40.16755 | -42.11105 | 34099 ft | 437 kts | 234° |
| 2026-03-22 19:31 | 40.13079 | -42.17436 | 34117 ft | 437 kts | 234° |
| 2026-03-22 19:32 | 40.09424 | -42.23721 | 34097 ft | 437 kts | 234° |
| 2026-03-22 19:32 | 40.05715 | -42.30082 | 34098 ft | 437 kts | 234° |
| 2026-03-22 19:33 | 40.02055 | -42.36348 | 34112 ft | 436 kts | 234° |
| 2026-03-22 19:33 | 39.98354 | -42.42625 | 34094 ft | 436 kts | 233° |
| 2026-03-22 19:34 | 39.94652 | -42.48899 | 34110 ft | 436 kts | 234° |
| 2026-03-22 19:34 | 39.90963 | -42.55168 | 34097 ft | 436 kts | 234° |
| 2026-03-22 19:35 | 39.87274 | -42.61434 | 34096 ft | 436 kts | 234° |
| 2026-03-22 19:35 | 39.83721 | -42.67458 | 34113 ft | 436 kts | 233° |
| 2026-03-22 19:36 | 39.80049 | -42.73674 | 34094 ft | 435 kts | 233° |
| 2026-03-22 19:36 | 39.76330 | -42.79955 | 34111 ft | 435 kts | 233° |
| 2026-03-22 19:37 | 39.72647 | -42.86164 | 34091 ft | 436 kts | 233° |
| 2026-03-22 19:37 | 39.68941 | -42.92398 | 34107 ft | 435 kts | 233° |
| 2026-03-22 19:38 | 39.65237 | -42.98618 | 34091 ft | 435 kts | 233° |
| 2026-03-22 19:38 | 39.61534 | -43.04822 | 34090 ft | 435 kts | 233° |
| 2026-03-22 19:39 | 39.57847 | -43.10990 | 34106 ft | 435 kts | 233° |
| 2026-03-22 19:39 | 39.54116 | -43.17217 | 34089 ft | 434 kts | 233° |
| 2026-03-22 19:40 | 39.50427 | -43.23357 | 34094 ft | 434 kts | 233° |
| 2026-03-22 19:40 | 39.46697 | -43.29508 | 34090 ft | 434 kts | 233° |
| 2026-03-22 19:41 | 39.42971 | -43.35663 | 34087 ft | 433 kts | 233° |
| 2026-03-22 19:41 | 39.39257 | -43.41809 | 34086 ft | 433 kts | 233° |
| 2026-03-22 19:42 | 39.35543 | -43.47950 | 34088 ft | 433 kts | 233° |
| 2026-03-22 19:42 | 39.31861 | -43.54027 | 34087 ft | 433 kts | 233° |
| 2026-03-22 19:43 | 39.28144 | -43.60151 | 34089 ft | 432 kts | 233° |
| 2026-03-22 19:43 | 39.25055 | -43.65231 | 34096 ft | 432 kts | 233° |
| 2026-03-22 19:44 | 39.21341 | -43.71328 | 34086 ft | 431 kts | 233° |
| 2026-03-22 19:44 | 39.17622 | -43.77422 | 34084 ft | 431 kts | 233° |
| 2026-03-22 19:45 | 39.13932 | -43.83455 | 34084 ft | 430 kts | 233° |
| 2026-03-22 19:45 | 39.10229 | -43.89499 | 34080 ft | 430 kts | 233° |
| 2026-03-22 19:46 | 39.06514 | -43.95551 | 34089 ft | 430 kts | 233° |
| 2026-03-22 19:46 | 39.02824 | -44.01551 | 34085 ft | 429 kts | 233° |
| 2026-03-22 19:47 | 38.99093 | -44.07602 | 34082 ft | 429 kts | 233° |
| 2026-03-22 19:47 | 38.95388 | -44.13559 | 34085 ft | 429 kts | 233° |
| 2026-03-22 19:48 | 38.91657 | -44.19561 | 34087 ft | 429 kts | 233° |
| 2026-03-22 19:48 | 38.87940 | -44.25555 | 34086 ft | 429 kts | 233° |
| 2026-03-22 19:49 | 38.84248 | -44.31504 | 34082 ft | 428 kts | 233° |
| 2026-03-22 19:49 | 38.80527 | -44.37491 | 34084 ft | 428 kts | 233° |
| 2026-03-22 19:50 | 38.74947 | -44.46446 | 34080 ft | 428 kts | 232° |
| 2026-03-22 19:51 | 38.71226 | -44.52404 | 34077 ft | 428 kts | 232° |
| 2026-03-22 19:51 | 38.67523 | -44.58322 | 34080 ft | 428 kts | 232° |
| 2026-03-22 19:52 | 38.63794 | -44.64271 | 34080 ft | 428 kts | 232° |
| 2026-03-22 19:52 | 38.60063 | -44.70212 | 34082 ft | 428 kts | 232° |
| 2026-03-22 19:53 | 38.56328 | -44.76148 | 34078 ft | 428 kts | 232° |
| 2026-03-22 19:53 | 38.52586 | -44.82084 | 34076 ft | 428 kts | 232° |
| 2026-03-22 19:54 | 38.48847 | -44.88006 | 34077 ft | 428 kts | 232° |
| 2026-03-22 19:54 | 38.45093 | -44.93913 | 34077 ft | 428 kts | 232° |
| 2026-03-22 19:55 | 38.41350 | -44.99779 | 34076 ft | 428 kts | 232° |
| 2026-03-22 19:55 | 38.37585 | -45.05694 | 34075 ft | 428 kts | 232° |
| 2026-03-22 19:56 | 38.33827 | -45.11602 | 34077 ft | 428 kts | 232° |
| 2026-03-22 19:56 | 38.30074 | -45.17496 | 34074 ft | 428 kts | 231° |
| 2026-03-22 19:57 | 38.26313 | -45.23389 | 34071 ft | 428 kts | 231° |
| 2026-03-22 19:57 | 38.22558 | -45.29264 | 34069 ft | 428 kts | 231° |
| 2026-03-22 19:58 | 38.18816 | -45.35106 | 34066 ft | 428 kts | 231° |
| 2026-03-22 19:58 | 38.15058 | -45.40963 | 34065 ft | 427 kts | 231° |
| 2026-03-22 19:59 | 38.11291 | -45.46824 | 34066 ft | 427 kts | 231° |
| 2026-03-22 19:59 | 38.07533 | -45.52660 | 34067 ft | 427 kts | 231° |
| 2026-03-22 20:00 | 38.03798 | -45.58450 | 34067 ft | 427 kts | 231° |
| 2026-03-22 20:00 | 38.00029 | -45.64281 | 34061 ft | 427 kts | 231° |
| 2026-03-22 20:01 | 37.96257 | -45.70109 | 34070 ft | 427 kts | 230° |
| 2026-03-22 20:01 | 37.92479 | -45.75910 | 34057 ft | 427 kts | 230° |
| 2026-03-22 20:02 | 37.88695 | -45.81697 | 34061 ft | 427 kts | 230° |
| 2026-03-22 20:02 | 37.84920 | -45.87485 | 34055 ft | 427 kts | 230° |
| 2026-03-22 20:03 | 37.81143 | -45.93280 | 34050 ft | 427 kts | 230° |
| 2026-03-22 20:03 | 37.77385 | -45.99037 | 34055 ft | 427 kts | 230° |
| 2026-03-22 20:04 | 37.73603 | -46.04821 | 34049 ft | 427 kts | 230° |
| 2026-03-22 20:04 | 37.69819 | -46.10599 | 34068 ft | 426 kts | 230° |
| 2026-03-22 20:05 | 37.66035 | -46.16365 | 34056 ft | 427 kts | 230° |
| 2026-03-22 20:05 | 37.62256 | -46.22113 | 34055 ft | 427 kts | 230° |
| 2026-03-22 20:06 | 37.58459 | -46.27879 | 34059 ft | 428 kts | 230° |
| 2026-03-22 20:06 | 37.54652 | -46.33651 | 34056 ft | 428 kts | 230° |
| 2026-03-22 20:07 | 37.50839 | -46.39421 | 34055 ft | 428 kts | 230° |
| 2026-03-22 20:07 | 37.47039 | -46.45160 | 34052 ft | 428 kts | 229° |
| 2026-03-22 20:08 | 37.43220 | -46.50919 | 34051 ft | 428 kts | 229° |
| 2026-03-22 20:08 | 37.39382 | -46.56674 | 34049 ft | 428 kts | 229° |
| 2026-03-22 20:09 | 37.35544 | -46.62408 | 34052 ft | 429 kts | 229° |
| 2026-03-22 20:09 | 37.31713 | -46.68143 | 34049 ft | 429 kts | 229° |
| 2026-03-22 20:10 | 37.27881 | -46.73884 | 34043 ft | 429 kts | 229° |
| 2026-03-22 20:10 | 37.24038 | -46.79634 | 34047 ft | 429 kts | 229° |
| 2026-03-22 20:11 | 37.20206 | -46.85358 | 34051 ft | 428 kts | 229° |
| 2026-03-22 20:11 | 37.16372 | -46.91073 | 34046 ft | 428 kts | 229° |
| 2026-03-22 20:12 | 37.12542 | -46.96774 | 34046 ft | 427 kts | 229° |
| 2026-03-22 20:12 | 37.08733 | -47.02433 | 34049 ft | 427 kts | 229° |
| 2026-03-22 20:13 | 37.04898 | -47.08121 | 34043 ft | 426 kts | 229° |
| 2026-03-22 20:13 | 37.01076 | -47.13780 | 34042 ft | 426 kts | 229° |
| 2026-03-22 20:14 | 36.97252 | -47.19432 | 34061 ft | 425 kts | 229° |
| 2026-03-22 20:14 | 36.93443 | -47.25052 | 34045 ft | 425 kts | 229° |
| 2026-03-22 20:15 | 36.89624 | -47.30678 | 34043 ft | 424 kts | 229° |
| 2026-03-22 20:15 | 36.85796 | -47.36288 | 34042 ft | 424 kts | 228° |
| 2026-03-22 20:16 | 36.81966 | -47.41880 | 34046 ft | 423 kts | 229° |
| 2026-03-22 20:16 | 36.78142 | -47.47476 | 34040 ft | 423 kts | 229° |
| 2026-03-22 20:17 | 36.74325 | -47.53064 | 34042 ft | 423 kts | 229° |
| 2026-03-22 20:17 | 36.70528 | -47.58617 | 34043 ft | 423 kts | 229° |
| 2026-03-22 20:18 | 36.66707 | -47.64197 | 34041 ft | 423 kts | 228° |
| 2026-03-22 20:18 | 36.62886 | -47.69766 | 34038 ft | 423 kts | 228° |
| 2026-03-22 20:19 | 36.59060 | -47.75334 | 34035 ft | 423 kts | 228° |
| 2026-03-22 20:19 | 36.55227 | -47.80902 | 34032 ft | 423 kts | 228° |
| 2026-03-22 20:20 | 36.51395 | -47.86459 | 34037 ft | 423 kts | 228° |
| 2026-03-22 20:20 | 36.47560 | -47.92013 | 34037 ft | 423 kts | 228° |
| 2026-03-22 20:21 | 36.43724 | -47.97558 | 34034 ft | 423 kts | 228° |
| 2026-03-22 20:21 | 36.39908 | -48.03064 | 34030 ft | 423 kts | 228° |
| 2026-03-22 20:22 | 36.36073 | -48.08590 | 34029 ft | 423 kts | 228° |
| 2026-03-22 20:22 | 36.32223 | -48.14114 | 34028 ft | 422 kts | 228° |
| 2026-03-22 20:23 | 36.28367 | -48.19621 | 34037 ft | 422 kts | 228° |
| 2026-03-22 20:23 | 36.24532 | -48.25112 | 34030 ft | 422 kts | 228° |
| 2026-03-22 20:24 | 36.20685 | -48.30624 | 34031 ft | 422 kts | 228° |
| 2026-03-22 20:24 | 36.16844 | -48.36121 | 34024 ft | 422 kts | 228° |
| 2026-03-22 20:25 | 36.13038 | -48.41560 | 34027 ft | 421 kts | 228° |
| 2026-03-22 20:25 | 36.07274 | -48.49781 | 34020 ft | 421 kts | 228° |
| 2026-03-22 20:26 | 36.03433 | -48.55248 | 34026 ft | 421 kts | 228° |
| 2026-03-22 20:26 | 35.99593 | -48.60704 | 34019 ft | 421 kts | 228° |
| 2026-03-22 20:27 | 35.95768 | -48.66132 | 34020 ft | 421 kts | 228° |
| 2026-03-22 20:27 | 35.91912 | -48.71593 | 34016 ft | 421 kts | 227° |
| 2026-03-22 20:28 | 35.88052 | -48.77051 | 34015 ft | 421 kts | 227° |
| 2026-03-22 20:28 | 35.84190 | -48.82504 | 34020 ft | 422 kts | 227° |
| 2026-03-22 20:29 | 35.80349 | -48.87918 | 34014 ft | 422 kts | 227° |
| 2026-03-22 20:29 | 35.76469 | -48.93360 | 34013 ft | 423 kts | 227° |
| 2026-03-22 20:30 | 35.72579 | -48.98808 | 34015 ft | 423 kts | 227° |
| 2026-03-22 20:30 | 35.68720 | -49.04227 | 34007 ft | 424 kts | 227° |
| 2026-03-22 20:31 | 35.64836 | -49.09682 | 34010 ft | 424 kts | 227° |
| 2026-03-22 20:31 | 35.61577 | -49.14253 | 34011 ft | 424 kts | 227° |
| 2026-03-22 20:32 | 35.57049 | -49.20595 | 34008 ft | 425 kts | 227° |
| 2026-03-22 20:32 | 35.53801 | -49.25136 | 34005 ft | 425 kts | 227° |
| 2026-03-22 20:33 | 35.49883 | -49.30607 | 34002 ft | 425 kts | 227° |
| 2026-03-22 20:33 | 35.45972 | -49.36057 | 34009 ft | 426 kts | 227° |
| 2026-03-22 20:34 | 35.42086 | -49.41466 | 33998 ft | 425 kts | 227° |
| 2026-03-22 20:34 | 35.38171 | -49.46906 | 34001 ft | 425 kts | 227° |
| 2026-03-22 20:35 | 35.34250 | -49.52346 | 33995 ft | 425 kts | 227° |
| 2026-03-22 20:35 | 35.30327 | -49.57778 | 33993 ft | 425 kts | 227° |
| 2026-03-22 20:36 | 35.26403 | -49.63204 | 33990 ft | 425 kts | 227° |
| 2026-03-22 20:36 | 35.22474 | -49.68632 | 33989 ft | 426 kts | 227° |
| 2026-03-22 20:37 | 35.18558 | -49.74068 | 33986 ft | 426 kts | 227° |
| 2026-03-22 20:37 | 35.14674 | -49.79483 | 33987 ft | 426 kts | 227° |
| 2026-03-22 20:38 | 35.10756 | -49.84948 | 33983 ft | 427 kts | 227° |
| 2026-03-22 20:38 | 35.06838 | -49.90408 | 33981 ft | 427 kts | 227° |
| 2026-03-22 20:39 | 35.02919 | -49.95859 | 33981 ft | 427 kts | 227° |
| 2026-03-22 20:39 | 34.98867 | -50.01160 | 33974 ft | 427 kts | 223° |
| 2026-03-22 20:40 | 34.94477 | -50.05971 | 33974 ft | 427 kts | 220° |
| 2026-03-22 20:40 | 34.89986 | -50.10707 | 33980 ft | 427 kts | 220° |
| 2026-03-22 20:41 | 34.85508 | -50.15460 | 33968 ft | 427 kts | 220° |
| 2026-03-22 20:41 | 34.81031 | -50.20241 | 33967 ft | 428 kts | 220° |
| 2026-03-22 20:42 | 34.76559 | -50.25021 | 33969 ft | 428 kts | 220° |
| 2026-03-22 20:42 | 34.72090 | -50.29791 | 33963 ft | 428 kts | 220° |
| 2026-03-22 20:43 | 34.67603 | -50.34574 | 33968 ft | 428 kts | 220° |
| 2026-03-22 20:43 | 34.63140 | -50.39324 | 33961 ft | 429 kts | 220° |
| 2026-03-22 20:44 | 34.58654 | -50.44090 | 33963 ft | 428 kts | 220° |
| 2026-03-22 20:44 | 34.54168 | -50.48849 | 33957 ft | 428 kts | 220° |
| 2026-03-22 20:50 | 34.01808 | -51.03853 | 33943 ft | 426 kts | 219° |
| 2026-03-22 20:51 | 33.97330 | -51.08520 | 33942 ft | 426 kts | 219° |
| 2026-03-22 20:51 | 33.93599 | -51.12402 | 33944 ft | 426 kts | 219° |
| 2026-03-22 20:52 | 33.89108 | -51.17069 | 33948 ft | 425 kts | 219° |
| 2026-03-22 20:52 | 33.84631 | -51.21714 | 33940 ft | 425 kts | 219° |
| 2026-03-22 20:53 | 33.80144 | -51.26364 | 33935 ft | 425 kts | 219° |
| 2026-03-22 20:53 | 33.75671 | -51.30992 | 33934 ft | 425 kts | 219° |
| 2026-03-22 20:54 | 33.71179 | -51.35615 | 33935 ft | 425 kts | 219° |
| 2026-03-22 20:54 | 33.66671 | -51.40248 | 33929 ft | 426 kts | 219° |
| 2026-03-22 20:55 | 33.62201 | -51.44851 | 33928 ft | 426 kts | 219° |
| 2026-03-22 20:55 | 33.57702 | -51.49481 | 33974 ft | 425 kts | 219° |
| 2026-03-22 20:56 | 33.55458 | -51.51790 | 34116 ft | 425 kts | 219° |
| 2026-03-22 20:56 | 33.53207 | -51.54104 | 34249 ft | 426 kts | 219° |
| 2026-03-22 20:56 | 33.50957 | -51.56414 | 34399 ft | 426 kts | 219° |
| 2026-03-22 20:56 | 33.48707 | -51.58724 | 34535 ft | 425 kts | 219° |
| 2026-03-22 20:57 | 33.46458 | -51.61030 | 34679 ft | 425 kts | 219° |
| 2026-03-22 20:57 | 33.44209 | -51.63335 | 34821 ft | 424 kts | 219° |
| 2026-03-22 20:57 | 33.41971 | -51.65627 | 34965 ft | 424 kts | 219° |
| 2026-03-22 20:57 | 33.39762 | -51.67887 | 35107 ft | 423 kts | 219° |
| 2026-03-22 20:58 | 33.37499 | -51.70202 | 35251 ft | 422 kts | 219° |
| 2026-03-22 20:58 | 33.35297 | -51.72452 | 35401 ft | 421 kts | 219° |
| 2026-03-22 20:58 | 33.33073 | -51.74724 | 35543 ft | 421 kts | 219° |
| 2026-03-22 20:58 | 33.30844 | -51.76998 | 35690 ft | 420 kts | 219° |
| 2026-03-22 20:59 | 33.28628 | -51.79258 | 35834 ft | 419 kts | 219° |
| 2026-03-22 20:59 | 33.26591 | -51.81334 | 35907 ft | 420 kts | 219° |
| 2026-03-22 20:59 | 33.22339 | -51.85663 | 35929 ft | 419 kts | 219° |
| 2026-03-22 21:00 | 33.17900 | -51.90177 | 35928 ft | 419 kts | 219° |
| 2026-03-22 21:00 | 33.13457 | -51.94689 | 35926 ft | 419 kts | 219° |
| 2026-03-22 21:01 | 33.09009 | -51.99187 | 35929 ft | 418 kts | 218° |
| 2026-03-22 21:01 | 33.04597 | -52.03636 | 35928 ft | 418 kts | 218° |
| 2026-03-22 21:02 | 33.00157 | -52.08120 | 35927 ft | 418 kts | 218° |
| 2026-03-22 21:02 | 32.95722 | -52.12601 | 35926 ft | 417 kts | 218° |
| 2026-03-22 21:03 | 32.91289 | -52.17075 | 35925 ft | 417 kts | 218° |
| 2026-03-22 21:03 | 32.86861 | -52.21539 | 35926 ft | 417 kts | 218° |
| 2026-03-22 21:04 | 32.82459 | -52.25969 | 35923 ft | 416 kts | 218° |
| 2026-03-22 21:04 | 32.78035 | -52.30416 | 35926 ft | 416 kts | 218° |
| 2026-03-22 21:05 | 32.73610 | -52.34859 | 35927 ft | 416 kts | 218° |
| 2026-03-22 21:05 | 32.69186 | -52.39293 | 35925 ft | 416 kts | 218° |
| 2026-03-22 21:06 | 32.64765 | -52.43720 | 35918 ft | 416 kts | 218° |
| 2026-03-22 21:06 | 32.60344 | -52.48140 | 35920 ft | 415 kts | 218° |
| 2026-03-22 21:07 | 32.55924 | -52.52553 | 35922 ft | 415 kts | 218° |
| 2026-03-22 21:07 | 32.51535 | -52.56930 | 35918 ft | 414 kts | 218° |
| 2026-03-22 21:08 | 32.47122 | -52.61321 | 35920 ft | 414 kts | 218° |
| 2026-03-22 21:08 | 32.42703 | -52.65697 | 35913 ft | 414 kts | 218° |
| 2026-03-22 21:09 | 32.38281 | -52.70080 | 35911 ft | 413 kts | 218° |
| 2026-03-22 21:09 | 32.33878 | -52.74449 | 35913 ft | 413 kts | 218° |
| 2026-03-22 21:10 | 32.29482 | -52.78808 | 35914 ft | 412 kts | 218° |
| 2026-03-22 21:10 | 32.25113 | -52.83136 | 35908 ft | 412 kts | 218° |
| 2026-03-22 21:11 | 32.20727 | -52.87474 | 35911 ft | 411 kts | 218° |
| 2026-03-22 21:11 | 32.16340 | -52.91808 | 35910 ft | 411 kts | 218° |
| 2026-03-22 21:12 | 32.11947 | -52.96143 | 35906 ft | 411 kts | 218° |
| 2026-03-22 21:12 | 32.07590 | -53.00436 | 35908 ft | 411 kts | 218° |
| 2026-03-22 21:13 | 32.03202 | -53.04754 | 35908 ft | 411 kts | 217° |
| 2026-03-22 21:13 | 31.98808 | -53.09072 | 35907 ft | 411 kts | 217° |
| 2026-03-22 21:14 | 31.94425 | -53.13375 | 35904 ft | 411 kts | 217° |
| 2026-03-22 21:14 | 31.90032 | -53.17681 | 35904 ft | 411 kts | 217° |
| 2026-03-22 21:15 | 31.85642 | -53.21979 | 35899 ft | 411 kts | 217° |
| 2026-03-22 21:15 | 31.81230 | -53.26283 | 35900 ft | 411 kts | 217° |
| 2026-03-22 21:16 | 31.76859 | -53.30537 | 35897 ft | 411 kts | 217° |
| 2026-03-22 21:16 | 31.72444 | -53.34841 | 35900 ft | 412 kts | 217° |
| 2026-03-22 21:17 | 31.68045 | -53.39132 | 35895 ft | 412 kts | 217° |
| 2026-03-22 21:17 | 31.63635 | -53.43429 | 35890 ft | 412 kts | 216° |
| 2026-03-22 21:18 | 31.59218 | -53.47727 | 35891 ft | 412 kts | 216° |
| 2026-03-22 21:18 | 31.54799 | -53.52022 | 35890 ft | 413 kts | 216° |
| 2026-03-22 21:19 | 31.50390 | -53.56301 | 35888 ft | 413 kts | 216° |
| 2026-03-22 21:19 | 31.45969 | -53.60588 | 35885 ft | 412 kts | 216° |
| 2026-03-22 21:20 | 31.41544 | -53.64872 | 35885 ft | 412 kts | 216° |
| 2026-03-22 21:20 | 31.37132 | -53.69138 | 35886 ft | 412 kts | 216° |
| 2026-03-22 21:21 | 31.32702 | -53.73417 | 35887 ft | 412 kts | 216° |
| 2026-03-22 21:21 | 31.28274 | -53.77687 | 35882 ft | 412 kts | 216° |
| 2026-03-22 21:22 | 31.23879 | -53.81920 | 35882 ft | 412 kts | 216° |
| 2026-03-22 21:22 | 31.19445 | -53.86186 | 35881 ft | 412 kts | 216° |
| 2026-03-22 21:23 | 31.15006 | -53.90438 | 35882 ft | 412 kts | 216° |
| 2026-03-22 21:23 | 31.10565 | -53.94698 | 35880 ft | 412 kts | 216° |
| 2026-03-22 21:24 | 31.06164 | -53.98922 | 35879 ft | 412 kts | 216° |
| 2026-03-22 21:24 | 31.01739 | -54.03169 | 35876 ft | 412 kts | 216° |
| 2026-03-22 21:25 | 30.97307 | -54.07418 | 35876 ft | 411 kts | 216° |
| 2026-03-22 21:25 | 30.92894 | -54.11644 | 35877 ft | 411 kts | 216° |
| 2026-03-22 21:26 | 30.88468 | -54.15875 | 35873 ft | 410 kts | 216° |
| 2026-03-22 21:26 | 30.84055 | -54.20090 | 35873 ft | 410 kts | 216° |
| 2026-03-22 21:27 | 30.77441 | -54.26398 | 35872 ft | 410 kts | 216° |
| 2026-03-22 21:28 | 30.73054 | -54.30574 | 35870 ft | 409 kts | 216° |
| 2026-03-22 21:28 | 30.68635 | -54.34776 | 35870 ft | 410 kts | 216° |
| 2026-03-22 21:29 | 30.64213 | -54.38977 | 35868 ft | 410 kts | 216° |
| 2026-03-22 21:29 | 30.59786 | -54.43176 | 35869 ft | 411 kts | 216° |
| 2026-03-22 21:30 | 30.55383 | -54.47349 | 35866 ft | 411 kts | 216° |
| 2026-03-22 21:30 | 30.50950 | -54.51552 | 35867 ft | 411 kts | 216° |
| 2026-03-22 21:31 | 30.46526 | -54.55765 | 35866 ft | 412 kts | 216° |
| 2026-03-22 21:31 | 30.42097 | -54.59988 | 35860 ft | 412 kts | 216° |
| 2026-03-22 21:32 | 30.37661 | -54.64218 | 35862 ft | 413 kts | 216° |
| 2026-03-22 21:32 | 30.33247 | -54.68420 | 35857 ft | 414 kts | 216° |
| 2026-03-22 21:33 | 30.28791 | -54.72658 | 35858 ft | 414 kts | 217° |
| 2026-03-22 21:33 | 30.24330 | -54.76895 | 35857 ft | 415 kts | 217° |
| 2026-03-22 21:34 | 30.19890 | -54.81107 | 35859 ft | 415 kts | 217° |
| 2026-03-22 21:34 | 30.15414 | -54.85348 | 35856 ft | 416 kts | 217° |
| 2026-03-22 21:35 | 30.10945 | -54.89576 | 35857 ft | 416 kts | 217° |
| 2026-03-22 21:35 | 30.06460 | -54.93816 | 35854 ft | 416 kts | 217° |
| 2026-03-22 21:36 | 30.01961 | -54.98063 | 35854 ft | 417 kts | 217° |
| 2026-03-22 21:36 | 29.97765 | -55.02642 | 35850 ft | 419 kts | 224° |
| 2026-03-22 21:37 | 29.93854 | -55.07636 | 35853 ft | 419 kts | 226° |
| 2026-03-22 21:37 | 29.90617 | -55.11855 | 35852 ft | 419 kts | 226° |
| 2026-03-22 21:38 | 29.86102 | -55.17688 | 35850 ft | 419 kts | 226° |
| 2026-03-22 21:38 | 29.82847 | -55.21861 | 35849 ft | 419 kts | 226° |
| 2026-03-22 21:39 | 29.78941 | -55.26856 | 35851 ft | 418 kts | 226° |
| 2026-03-22 21:39 | 29.75066 | -55.31802 | 35846 ft | 418 kts | 226° |
| 2026-03-22 21:40 | 29.71181 | -55.36755 | 35847 ft | 417 kts | 226° |
| 2026-03-22 21:40 | 29.67278 | -55.41726 | 35848 ft | 417 kts | 226° |
| 2026-03-22 21:41 | 29.63412 | -55.46643 | 35848 ft | 417 kts | 226° |
| 2026-03-22 21:41 | 29.59507 | -55.51604 | 35850 ft | 417 kts | 227° |
| 2026-03-22 21:42 | 29.55598 | -55.56563 | 35849 ft | 422 kts | 227° |
| 2026-03-22 21:42 | 29.51641 | -55.61577 | 35849 ft | 423 kts | 227° |
| 2026-03-22 21:43 | 29.47709 | -55.66554 | 35843 ft | 423 kts | 227° |
| 2026-03-22 21:43 | 29.43748 | -55.71554 | 35851 ft | 423 kts | 227° |
| 2026-03-22 21:44 | 29.39782 | -55.76538 | 35853 ft | 423 kts | 227° |
| 2026-03-22 21:44 | 29.35774 | -55.81579 | 35851 ft | 423 kts | 227° |
| 2026-03-22 21:45 | 29.31847 | -55.86524 | 35853 ft | 423 kts | 227° |
| 2026-03-22 21:45 | 29.27911 | -55.91477 | 35855 ft | 423 kts | 227° |
| 2026-03-22 21:46 | 29.23948 | -55.96459 | 35860 ft | 423 kts | 227° |
| 2026-03-22 21:46 | 29.19983 | -56.01437 | 35859 ft | 423 kts | 227° |
| 2026-03-22 21:47 | 29.16024 | -56.06400 | 35862 ft | 422 kts | 228° |
| 2026-03-22 21:47 | 29.12063 | -56.11361 | 35862 ft | 422 kts | 228° |
| 2026-03-22 21:48 | 29.08090 | -56.16329 | 35867 ft | 422 kts | 228° |
| 2026-03-22 21:48 | 29.06100 | -56.18816 | 35536 ft | 425 kts | 228° |
| 2026-03-22 21:48 | 29.04110 | -56.21301 | 35198 ft | 423 kts | 228° |
| 2026-03-22 21:48 | 29.02141 | -56.23757 | 35400 ft | 417 kts | 228° |
| 2026-03-22 21:49 | 29.00176 | -56.26208 | 35587 ft | 417 kts | 228° |
| 2026-03-22 21:49 | 28.98218 | -56.28649 | 35798 ft | 417 kts | 228° |
| 2026-03-22 21:49 | 28.96284 | -56.31058 | 35982 ft | 417 kts | 229° |
| 2026-03-22 21:49 | 28.94326 | -56.33495 | 36178 ft | 416 kts | 229° |
| 2026-03-22 21:50 | 28.92367 | -56.35934 | 36373 ft | 416 kts | 229° |
| 2026-03-22 21:50 | 28.90412 | -56.38364 | 36587 ft | 415 kts | 229° |
| 2026-03-22 21:50 | 28.88456 | -56.40794 | 36788 ft | 414 kts | 229° |
| 2026-03-22 21:50 | 28.86500 | -56.43213 | 36991 ft | 414 kts | 229° |
| 2026-03-22 21:51 | 28.84550 | -56.45621 | 37212 ft | 413 kts | 229° |
| 2026-03-22 21:51 | 28.82601 | -56.48030 | 37410 ft | 412 kts | 229° |
| 2026-03-22 21:51 | 28.80660 | -56.50432 | 37622 ft | 411 kts | 229° |
| 2026-03-22 21:51 | 28.78748 | -56.52800 | 37828 ft | 411 kts | 229° |
| 2026-03-22 21:52 | 28.76790 | -56.55225 | 37879 ft | 413 kts | 229° |
| 2026-03-22 21:52 | 28.72881 | -56.60065 | 37887 ft | 418 kts | 229° |
| 2026-03-22 21:53 | 28.68936 | -56.64943 | 37887 ft | 418 kts | 229° |
| 2026-03-22 21:53 | 28.64991 | -56.69816 | 37890 ft | 418 kts | 229° |
| 2026-03-22 21:54 | 28.61042 | -56.74687 | 37892 ft | 419 kts | 229° |
| 2026-03-22 21:54 | 28.57089 | -56.79557 | 37900 ft | 419 kts | 229° |
| 2026-03-22 21:55 | 28.53136 | -56.84423 | 37900 ft | 418 kts | 229° |
| 2026-03-22 21:55 | 28.49201 | -56.89259 | 37904 ft | 418 kts | 229° |
| 2026-03-22 21:56 | 28.45246 | -56.94115 | 37905 ft | 418 kts | 229° |
| 2026-03-22 21:56 | 28.41293 | -56.98963 | 37902 ft | 418 kts | 230° |
| 2026-03-22 21:57 | 28.37335 | -57.03811 | 37907 ft | 418 kts | 230° |
| 2026-03-22 21:57 | 28.33374 | -57.08657 | 37912 ft | 418 kts | 230° |
| 2026-03-22 21:58 | 28.29409 | -57.13488 | 37913 ft | 418 kts | 230° |
| 2026-03-22 21:58 | 28.25438 | -57.18317 | 37920 ft | 418 kts | 230° |
| 2026-03-22 21:59 | 28.21492 | -57.23124 | 37916 ft | 418 kts | 230° |
| 2026-03-22 21:59 | 28.17534 | -57.27946 | 37922 ft | 418 kts | 230° |
| 2026-03-22 22:00 | 28.13570 | -57.32772 | 37921 ft | 418 kts | 230° |
| 2026-03-22 22:00 | 28.09599 | -57.37600 | 37927 ft | 418 kts | 230° |
| 2026-03-22 22:01 | 28.05634 | -57.42416 | 37931 ft | 418 kts | 230° |
| 2026-03-22 22:01 | 28.01657 | -57.47240 | 37931 ft | 418 kts | 230° |
| 2026-03-22 22:02 | 27.97685 | -57.52053 | 37933 ft | 418 kts | 230° |
| 2026-03-22 22:02 | 27.93739 | -57.56828 | 37936 ft | 418 kts | 230° |
| 2026-03-22 22:03 | 27.89763 | -57.61634 | 37940 ft | 418 kts | 230° |
| 2026-03-22 22:03 | 27.85782 | -57.66441 | 37939 ft | 418 kts | 230° |
| 2026-03-22 22:04 | 27.81802 | -57.71241 | 37946 ft | 418 kts | 230° |
| 2026-03-22 22:04 | 27.77820 | -57.76039 | 37939 ft | 418 kts | 230° |
| 2026-03-22 22:05 | 27.73839 | -57.80823 | 37939 ft | 418 kts | 230° |
| 2026-03-22 22:05 | 27.69872 | -57.85573 | 37944 ft | 419 kts | 230° |
| 2026-03-22 22:06 | 27.66008 | -57.90206 | 37934 ft | 419 kts | 231° |
| 2026-03-22 22:06 | 27.62017 | -57.94994 | 37942 ft | 419 kts | 231° |
| 2026-03-22 22:07 | 27.58041 | -57.99761 | 37933 ft | 419 kts | 231° |
| 2026-03-22 22:07 | 27.54040 | -58.04553 | 37946 ft | 419 kts | 231° |
| 2026-03-22 22:08 | 27.50047 | -58.09331 | 37945 ft | 419 kts | 231° |
| 2026-03-22 22:08 | 27.46035 | -58.14125 | 37939 ft | 419 kts | 231° |
| 2026-03-22 22:09 | 27.42027 | -58.18909 | 37944 ft | 419 kts | 231° |
| 2026-03-22 22:09 | 27.38059 | -58.23641 | 37955 ft | 420 kts | 231° |
| 2026-03-22 22:10 | 27.34054 | -58.28411 | 37947 ft | 420 kts | 231° |
| 2026-03-22 22:10 | 27.30020 | -58.33209 | 37955 ft | 420 kts | 231° |
| 2026-03-22 22:11 | 27.26000 | -58.37986 | 37954 ft | 420 kts | 231° |
| 2026-03-22 22:11 | 27.22017 | -58.42714 | 37956 ft | 419 kts | 231° |
| 2026-03-22 22:12 | 27.18008 | -58.47467 | 37953 ft | 419 kts | 231° |
| 2026-03-22 22:12 | 27.13992 | -58.52205 | 37960 ft | 420 kts | 231° |
| 2026-03-22 22:13 | 27.09962 | -58.56964 | 37963 ft | 419 kts | 231° |
| 2026-03-22 22:13 | 27.06024 | -58.61619 | 37956 ft | 419 kts | 231° |
| 2026-03-22 22:14 | 27.02007 | -58.66366 | 37970 ft | 419 kts | 231° |
| 2026-03-22 22:14 | 26.97993 | -58.71105 | 37968 ft | 419 kts | 231° |
| 2026-03-22 22:15 | 26.93979 | -58.75840 | 37962 ft | 419 kts | 231° |
| 2026-03-22 22:15 | 26.89961 | -58.80573 | 37969 ft | 418 kts | 231° |
| 2026-03-22 22:16 | 26.85944 | -58.85300 | 37961 ft | 418 kts | 231° |
| 2026-03-22 22:16 | 26.81947 | -58.89998 | 37970 ft | 418 kts | 231° |
| 2026-03-22 22:17 | 26.71705 | -59.02013 | 37973 ft | 418 kts | 231° |
| 2026-03-22 22:17 | 26.56564 | -59.19700 | 37980 ft | 417 kts | 231° |
| 2026-03-22 22:18 | 26.40711 | -59.38171 | 37981 ft | 415 kts | 231° |
| 2026-03-22 22:18 | 26.24726 | -59.56738 | 37959 ft | 414 kts | 231° |
| 2026-03-22 22:19 | 26.08787 | -59.75172 | 38009 ft | 412 kts | 231° |
| 2026-03-22 22:19 | 25.92854 | -59.93516 | 37977 ft | 411 kts | 232° |
| 2026-03-22 22:20 | 25.76970 | -60.11787 | 37990 ft | 410 kts | 232° |
| 2026-03-22 22:20 | 25.61120 | -60.29947 | 38027 ft | 409 kts | 232° |
| 2026-03-22 22:21 | 25.45263 | -60.48040 | 37992 ft | 409 kts | 232° |
| 2026-03-22 22:21 | 25.29470 | -60.66157 | 38015 ft | 408 kts | 232° |
| 2026-03-22 22:22 | 25.13784 | -60.84138 | 38014 ft | 408 kts | 232° |
| 2026-03-22 22:22 | 24.98255 | -61.02350 | 37986 ft | 403 kts | 238° |
| 2026-03-22 22:23 | 24.87238 | -61.18646 | 38050 ft | 400 kts | 239° |
| 2026-03-22 22:23 | 24.71635 | -61.41570 | 38033 ft | 400 kts | 239° |
| 2026-03-22 22:24 | 24.65396 | -61.50703 | 38015 ft | 400 kts | 239° |
| 2026-03-22 22:24 | 24.62937 | -61.54300 | 38010 ft | 400 kts | 239° |
| 2026-03-22 22:25 | 24.53967 | -61.67389 | 38014 ft | 399 kts | 239° |
| 2026-03-22 22:25 | 24.38384 | -61.90022 | 38032 ft | 399 kts | 239° |
| 2026-03-22 22:26 | 24.27258 | -62.06156 | 38031 ft | 399 kts | 239° |
| 2026-03-22 22:26 | 24.13836 | -62.25549 | 38006 ft | 399 kts | 239° |
| 2026-03-22 22:27 | 23.93634 | -62.54567 | 38057 ft | 398 kts | 239° |
| 2026-03-22 22:27 | 23.80255 | -62.73732 | 37986 ft | 399 kts | 239° |
| 2026-03-22 22:28 | 23.66678 | -62.93110 | 38048 ft | 398 kts | 239° |
| 2026-03-22 22:28 | 23.53285 | -63.12153 | 38009 ft | 398 kts | 239° |
| 2026-03-22 22:29 | 23.39772 | -63.31277 | 38048 ft | 397 kts | 239° |
| 2026-03-22 22:29 | 23.26317 | -63.50302 | 38020 ft | 397 kts | 239° |
| 2026-03-22 22:30 | 23.12794 | -63.69352 | 38015 ft | 397 kts | 239° |
| 2026-03-22 22:30 | 22.99322 | -63.88262 | 38048 ft | 395 kts | 239° |
| 2026-03-22 22:31 | 22.91572 | -63.99098 | 38027 ft | 395 kts | 239° |
| 2026-03-22 22:31 | 22.88378 | -64.03572 | 38032 ft | 395 kts | 239° |
| 2026-03-22 22:32 | 22.85102 | -64.08160 | 38037 ft | 395 kts | 239° |
| 2026-03-22 22:32 | 22.81732 | -64.12877 | 38032 ft | 395 kts | 239° |
| 2026-03-22 22:33 | 22.78368 | -64.17580 | 38014 ft | 394 kts | 238° |
| 2026-03-22 22:33 | 22.75041 | -64.22227 | 38033 ft | 392 kts | 238° |
| 2026-03-22 22:34 | 22.71700 | -64.26891 | 38031 ft | 391 kts | 238° |
| 2026-03-22 22:34 | 22.68359 | -64.31549 | 38030 ft | 391 kts | 238° |
| 2026-03-22 22:35 | 22.65030 | -64.36189 | 38031 ft | 391 kts | 238° |
| 2026-03-22 22:35 | 22.61684 | -64.40847 | 38032 ft | 391 kts | 238° |
| 2026-03-22 22:36 | 22.58480 | -64.45300 | 38025 ft | 391 kts | 238° |
| 2026-03-22 22:36 | 22.55138 | -64.49945 | 38054 ft | 390 kts | 238° |
| 2026-03-22 22:37 | 22.51768 | -64.54625 | 38014 ft | 391 kts | 238° |
| 2026-03-22 22:37 | 22.48444 | -64.59236 | 38035 ft | 391 kts | 238° |
| 2026-03-22 22:38 | 22.45101 | -64.63883 | 38035 ft | 391 kts | 238° |
| 2026-03-22 22:38 | 22.41864 | -64.68408 | 38036 ft | 391 kts | 238° |
| 2026-03-22 22:39 | 22.38542 | -64.73062 | 38036 ft | 391 kts | 238° |
| 2026-03-22 22:39 | 22.35221 | -64.77714 | 38037 ft | 391 kts | 238° |
| 2026-03-22 22:40 | 22.31901 | -64.82362 | 38030 ft | 391 kts | 238° |
| 2026-03-22 22:40 | 22.28694 | -64.86847 | 38038 ft | 391 kts | 238° |
| 2026-03-22 22:41 | 22.25363 | -64.91503 | 38035 ft | 391 kts | 238° |
| 2026-03-22 22:41 | 22.22059 | -64.96116 | 38034 ft | 391 kts | 238° |
| 2026-03-22 22:42 | 22.18959 | -65.00441 | 38035 ft | 391 kts | 238° |
| 2026-03-22 22:42 | 22.15696 | -65.04989 | 38036 ft | 391 kts | 238° |
| 2026-03-22 22:43 | 22.12363 | -65.09632 | 38035 ft | 391 kts | 238° |
| 2026-03-22 22:43 | 22.09038 | -65.14294 | 38037 ft | 391 kts | 238° |
| 2026-03-22 22:44 | 22.05772 | -65.18982 | 38031 ft | 391 kts | 238° |
| 2026-03-22 22:44 | 22.02532 | -65.23665 | 38038 ft | 391 kts | 238° |
| 2026-03-22 22:45 | 21.99278 | -65.28368 | 38037 ft | 391 kts | 238° |
| 2026-03-22 22:45 | 21.96022 | -65.33066 | 38042 ft | 391 kts | 238° |
| 2026-03-22 22:46 | 21.92761 | -65.37768 | 38036 ft | 391 kts | 238° |
| 2026-03-22 22:46 | 21.89497 | -65.42470 | 38039 ft | 391 kts | 238° |
| 2026-03-22 22:47 | 21.86247 | -65.47147 | 38037 ft | 392 kts | 238° |
| 2026-03-22 22:47 | 21.82985 | -65.51836 | 38039 ft | 392 kts | 238° |
| 2026-03-22 22:48 | 21.79711 | -65.56540 | 38039 ft | 392 kts | 238° |
| 2026-03-22 22:48 | 21.76438 | -65.61238 | 38040 ft | 392 kts | 238° |
| 2026-03-22 22:49 | 21.73167 | -65.65929 | 38044 ft | 392 kts | 238° |
| 2026-03-22 22:49 | 21.69889 | -65.70625 | 38041 ft | 392 kts | 238° |
| 2026-03-22 22:50 | 21.66611 | -65.75319 | 38051 ft | 392 kts | 238° |
| 2026-03-22 22:50 | 21.63351 | -65.79982 | 38032 ft | 392 kts | 238° |
| 2026-03-22 22:51 | 21.60069 | -65.84679 | 38050 ft | 392 kts | 238° |
| 2026-03-22 22:51 | 21.56822 | -65.89387 | 38034 ft | 392 kts | 238° |
| 2026-03-22 22:52 | 21.53580 | -65.94128 | 38045 ft | 392 kts | 238° |
| 2026-03-22 22:52 | 21.50372 | -65.98825 | 38044 ft | 392 kts | 238° |
| 2026-03-22 22:53 | 21.47134 | -66.03559 | 38036 ft | 393 kts | 237° |
| 2026-03-22 22:53 | 21.43682 | -66.08114 | 38039 ft | 395 kts | 234° |
| 2026-03-22 22:54 | 21.40076 | -66.12534 | 38035 ft | 396 kts | 233° |
| 2026-03-22 22:54 | 21.36425 | -66.16971 | 38035 ft | 396 kts | 234° |
| 2026-03-22 22:55 | 21.32787 | -66.21404 | 38039 ft | 396 kts | 233° |
| 2026-03-22 22:55 | 21.29151 | -66.25844 | 38039 ft | 396 kts | 233° |
| 2026-03-22 22:56 | 21.25506 | -66.30293 | 38038 ft | 396 kts | 233° |
| 2026-03-22 22:56 | 21.21888 | -66.34708 | 38042 ft | 397 kts | 233° |
| 2026-03-22 22:57 | 21.18245 | -66.39148 | 38039 ft | 397 kts | 233° |
| 2026-03-22 22:57 | 21.14599 | -66.43590 | 38038 ft | 396 kts | 233° |
| 2026-03-22 22:58 | 21.10951 | -66.48030 | 38039 ft | 397 kts | 233° |
| 2026-03-22 22:58 | 21.07300 | -66.52470 | 38040 ft | 397 kts | 233° |
| 2026-03-22 22:59 | 21.03649 | -66.56906 | 38041 ft | 397 kts | 233° |
| 2026-03-22 22:59 | 20.99995 | -66.61342 | 38041 ft | 397 kts | 233° |
| 2026-03-22 23:00 | 20.96335 | -66.65783 | 38039 ft | 397 kts | 233° |
| 2026-03-22 23:00 | 20.92693 | -66.70198 | 38045 ft | 398 kts | 233° |
| 2026-03-22 23:01 | 20.89036 | -66.74645 | 38041 ft | 398 kts | 233° |
| 2026-03-22 23:01 | 20.85392 | -66.79104 | 38045 ft | 398 kts | 233° |
| 2026-03-22 23:02 | 20.81751 | -66.83568 | 38042 ft | 398 kts | 233° |
| 2026-03-22 23:02 | 20.78108 | -66.88034 | 38045 ft | 398 kts | 233° |
| 2026-03-22 23:03 | 20.74494 | -66.92463 | 38036 ft | 398 kts | 233° |
| 2026-03-22 23:03 | 20.70845 | -66.96929 | 38043 ft | 398 kts | 233° |
| 2026-03-22 23:04 | 20.67190 | -67.01399 | 38041 ft | 398 kts | 233° |
| 2026-03-22 23:04 | 20.63549 | -67.05848 | 38043 ft | 398 kts | 233° |
| 2026-03-22 23:05 | 20.59902 | -67.10302 | 38042 ft | 398 kts | 233° |
| 2026-03-22 23:05 | 20.56272 | -67.14731 | 38044 ft | 398 kts | 233° |
| 2026-03-22 23:06 | 20.52619 | -67.19167 | 38040 ft | 399 kts | 232° |
| 2026-03-22 23:06 | 20.48939 | -67.23604 | 38040 ft | 399 kts | 232° |
| 2026-03-22 23:07 | 20.45252 | -67.28046 | 38040 ft | 400 kts | 232° |
| 2026-03-22 23:07 | 20.41561 | -67.32493 | 37975 ft | 401 kts | 232° |
| 2026-03-22 23:08 | 20.40332 | -67.33975 | 37723 ft | 403 kts | 232° |
| 2026-03-22 23:08 | 20.37868 | -67.36929 | 37240 ft | 401 kts | 232° |
| 2026-03-22 23:08 | 20.36185 | -67.38943 | 36799 ft | 404 kts | 232° |
| 2026-03-22 23:08 | 20.34309 | -67.41187 | 36320 ft | 405 kts | 232° |
| 2026-03-22 23:09 | 20.32430 | -67.43433 | 35856 ft | 405 kts | 232° |
| 2026-03-22 23:09 | 20.30551 | -67.45680 | 35407 ft | 406 kts | 232° |
| 2026-03-22 23:09 | 20.28689 | -67.47903 | 34972 ft | 405 kts | 232° |
| 2026-03-22 23:09 | 20.27427 | -67.49409 | 34673 ft | 400 kts | 232° |
| 2026-03-22 23:10 | 20.25032 | -67.52259 | 34096 ft | 380 kts | 232° |
| 2026-03-22 23:10 | 20.23307 | -67.54311 | 33610 ft | 367 kts | 232° |
| 2026-03-22 23:10 | 20.21626 | -67.56312 | 33115 ft | 354 kts | 232° |
| 2026-03-22 23:10 | 20.20008 | -67.58240 | 32641 ft | 343 kts | 232° |
| 2026-03-22 23:11 | 20.18968 | -67.59481 | 32329 ft | 339 kts | 233° |
| 2026-03-22 23:11 | 20.17392 | -67.61367 | 31871 ft | 340 kts | 233° |
| 2026-03-22 23:11 | 20.15839 | -67.63225 | 31413 ft | 339 kts | 233° |
| 2026-03-22 23:11 | 20.14253 | -67.65120 | 30973 ft | 338 kts | 233° |
| 2026-03-22 23:12 | 20.12185 | -67.67589 | 30387 ft | 338 kts | 233° |
| 2026-03-22 23:12 | 20.11144 | -67.68830 | 30094 ft | 337 kts | 233° |
| 2026-03-22 23:12 | 20.08024 | -67.72548 | 29081 ft | 335 kts | 232° |
| 2026-03-22 23:13 | 20.06476 | -67.74389 | 28594 ft | 333 kts | 232° |
| 2026-03-22 23:13 | 20.04934 | -67.76224 | 28104 ft | 332 kts | 232° |
| 2026-03-22 23:13 | 20.03397 | -67.78052 | 27622 ft | 330 kts | 232° |
| 2026-03-22 23:13 | 20.01867 | -67.79871 | 27150 ft | 329 kts | 232° |
| 2026-03-22 23:14 | 20.00361 | -67.81660 | 26703 ft | 327 kts | 232° |
| 2026-03-22 23:14 | 19.98850 | -67.83455 | 26243 ft | 326 kts | 232° |
| 2026-03-22 23:14 | 19.97343 | -67.85245 | 25798 ft | 324 kts | 232° |
| 2026-03-22 23:14 | 19.95840 | -67.87031 | 25354 ft | 323 kts | 232° |
| 2026-03-22 23:15 | 19.94342 | -67.88808 | 24913 ft | 322 kts | 232° |
| 2026-03-22 23:15 | 19.92851 | -67.90578 | 24494 ft | 321 kts | 231° |
| 2026-03-22 23:15 | 19.91361 | -67.92346 | 24075 ft | 320 kts | 231° |
| 2026-03-22 23:15 | 19.89878 | -67.94104 | 23660 ft | 319 kts | 231° |
| 2026-03-22 23:16 | 19.88419 | -67.95834 | 23173 ft | 318 kts | 231° |
| 2026-03-22 23:16 | 19.86947 | -67.97579 | 22683 ft | 317 kts | 231° |
| 2026-03-22 23:16 | 19.85479 | -67.99318 | 22284 ft | 314 kts | 231° |
| 2026-03-22 23:16 | 19.84019 | -68.01050 | 22087 ft | 315 kts | 231° |
| 2026-03-22 23:17 | 19.82558 | -68.02789 | 21878 ft | 314 kts | 231° |
| 2026-03-22 23:17 | 19.81106 | -68.04522 | 21690 ft | 314 kts | 231° |
| 2026-03-22 23:17 | 19.79655 | -68.06256 | 21484 ft | 314 kts | 231° |
| 2026-03-22 23:17 | 19.78206 | -68.07989 | 21294 ft | 313 kts | 231° |
| 2026-03-22 23:18 | 19.76761 | -68.09718 | 21102 ft | 313 kts | 231° |
| 2026-03-22 23:18 | 19.75319 | -68.11443 | 20902 ft | 312 kts | 231° |
| 2026-03-22 23:18 | 19.73881 | -68.13163 | 20708 ft | 312 kts | 231° |
| 2026-03-22 23:18 | 19.72454 | -68.14870 | 20517 ft | 311 kts | 231° |
| 2026-03-22 23:19 | 19.71000 | -68.16610 | 20337 ft | 311 kts | 231° |
| 2026-03-22 23:19 | 19.69583 | -68.18304 | 20137 ft | 311 kts | 231° |
| 2026-03-22 23:19 | 19.68148 | -68.20019 | 19948 ft | 310 kts | 231° |
| 2026-03-22 23:19 | 19.66719 | -68.21727 | 19770 ft | 310 kts | 231° |
| 2026-03-22 23:20 | 19.65283 | -68.23442 | 19566 ft | 310 kts | 230° |
| 2026-03-22 23:20 | 19.63848 | -68.25156 | 19393 ft | 310 kts | 230° |
| 2026-03-22 23:20 | 19.62416 | -68.26866 | 19202 ft | 310 kts | 230° |
| 2026-03-22 23:20 | 19.60976 | -68.28585 | 19034 ft | 310 kts | 230° |
| 2026-03-22 23:21 | 19.59560 | -68.30274 | 18835 ft | 310 kts | 230° |
| 2026-03-22 23:21 | 19.58126 | -68.31985 | 18669 ft | 310 kts | 230° |
| 2026-03-22 23:21 | 19.56693 | -68.33695 | 18490 ft | 310 kts | 230° |
| 2026-03-22 23:21 | 19.55259 | -68.35404 | 18305 ft | 310 kts | 230° |
| 2026-03-22 23:22 | 19.53827 | -68.37111 | 18097 ft | 309 kts | 230° |
| 2026-03-22 23:22 | 19.52394 | -68.38816 | 17886 ft | 309 kts | 230° |
| 2026-03-22 23:22 | 19.51136 | -68.40314 | 17683 ft | 308 kts | 230° |
| 2026-03-22 23:22 | 19.50578 | -68.40980 | 17570 ft | 308 kts | 230° |
| 2026-03-22 23:23 | 19.49154 | -68.42674 | 17323 ft | 307 kts | 230° |
| 2026-03-22 23:23 | 19.47754 | -68.44340 | 17084 ft | 306 kts | 230° |
| 2026-03-22 23:23 | 19.46335 | -68.46029 | 16827 ft | 306 kts | 230° |
| 2026-03-22 23:23 | 19.44926 | -68.47705 | 16581 ft | 305 kts | 230° |
| 2026-03-22 23:24 | 19.43512 | -68.49387 | 16337 ft | 304 kts | 230° |
| 2026-03-22 23:24 | 19.42106 | -68.51058 | 16093 ft | 303 kts | 230° |
| 2026-03-22 23:24 | 19.40700 | -68.52730 | 15849 ft | 303 kts | 230° |
| 2026-03-22 23:24 | 19.39299 | -68.54395 | 15606 ft | 301 kts | 230° |
| 2026-03-22 23:25 | 19.37915 | -68.56039 | 15372 ft | 299 kts | 230° |
| 2026-03-22 23:25 | 19.36544 | -68.57667 | 15136 ft | 300 kts | 230° |
| 2026-03-22 23:25 | 19.35151 | -68.59321 | 14904 ft | 300 kts | 230° |
| 2026-03-22 23:25 | 19.33762 | -68.60957 | 14753 ft | 296 kts | 230° |
| 2026-03-22 23:26 | 19.32375 | -68.62580 | 14709 ft | 298 kts | 229° |
| 2026-03-22 23:26 | 19.30975 | -68.64216 | 14647 ft | 298 kts | 229° |
| 2026-03-22 23:26 | 19.29588 | -68.65839 | 14586 ft | 298 kts | 229° |
| 2026-03-22 23:26 | 19.28206 | -68.67455 | 14515 ft | 298 kts | 229° |
| 2026-03-22 23:27 | 19.26825 | -68.69071 | 14474 ft | 297 kts | 229° |
| 2026-03-22 23:27 | 19.25438 | -68.70694 | 14414 ft | 294 kts | 229° |
| 2026-03-22 23:27 | 19.24101 | -68.72257 | 14349 ft | 280 kts | 229° |
| 2026-03-22 23:27 | 19.22780 | -68.73755 | 14264 ft | 275 kts | 224° |
| 2026-03-22 23:28 | 19.21127 | -68.74777 | 14124 ft | 283 kts | 199° |
| 2026-03-22 23:28 | 19.19167 | -68.74943 | 14003 ft | 288 kts | 174° |
| 2026-03-22 23:28 | 19.17282 | -68.74205 | 13877 ft | 292 kts | 153° |
| 2026-03-22 23:28 | 19.15561 | -68.73035 | 13730 ft | 295 kts | 149° |
| 2026-03-22 23:29 | 19.13804 | -68.71891 | 13420 ft | 295 kts | 154° |
| 2026-03-22 23:29 | 19.11996 | -68.70941 | 13084 ft | 292 kts | 159° |
| 2026-03-22 23:29 | 19.10167 | -68.70166 | 12725 ft | 287 kts | 163° |
| 2026-03-22 23:29 | 19.08238 | -68.69476 | 12352 ft | 285 kts | 165° |
| 2026-03-22 23:30 | 19.06345 | -68.68879 | 11969 ft | 283 kts | 167° |
| 2026-03-22 23:30 | 19.04445 | -68.68331 | 11630 ft | 280 kts | 168° |
| 2026-03-22 23:30 | 19.02560 | -68.67816 | 11200 ft | 281 kts | 168° |
| 2026-03-22 23:30 | 19.00659 | -68.67317 | 10746 ft | 281 kts | 169° |
| 2026-03-22 23:31 | 18.98755 | -68.66830 | 10305 ft | 281 kts | 169° |
| 2026-03-22 23:31 | 18.96846 | -68.66349 | 9867 ft | 282 kts | 169° |
| 2026-03-22 23:31 | 18.94965 | -68.65881 | 9386 ft | 282 kts | 169° |
| 2026-03-22 23:31 | 18.93041 | -68.65406 | 8909 ft | 283 kts | 169° |
| 2026-03-22 23:32 | 18.91121 | -68.64936 | 8433 ft | 283 kts | 169° |
| 2026-03-22 23:32 | 18.89201 | -68.64466 | 7972 ft | 284 kts | 169° |
| 2026-03-22 23:32 | 18.87271 | -68.63994 | 7511 ft | 284 kts | 169° |
| 2026-03-22 23:32 | 18.85344 | -68.63523 | 7057 ft | 285 kts | 169° |
| 2026-03-22 23:33 | 18.83414 | -68.63052 | 6611 ft | 285 kts | 168° |
| 2026-03-22 23:33 | 18.81480 | -68.62580 | 6160 ft | 285 kts | 168° |
| 2026-03-22 23:33 | 18.79545 | -68.62109 | 5680 ft | 285 kts | 168° |
| 2026-03-22 23:33 | 18.77611 | -68.61641 | 5215 ft | 285 kts | 167° |
| 2026-03-22 23:34 | 18.75676 | -68.61172 | 4756 ft | 285 kts | 167° |
| 2026-03-22 23:34 | 18.73743 | -68.60701 | 4297 ft | 284 kts | 167° |
| 2026-03-22 23:34 | 18.71836 | -68.60237 | 3933 ft | 280 kts | 167° |
| 2026-03-22 23:34 | 18.69946 | -68.59777 | 3555 ft | 277 kts | 166° |
| 2026-03-22 23:35 | 18.68098 | -68.59327 | 3220 ft | 273 kts | 166° |
| 2026-03-22 23:35 | 18.66256 | -68.58879 | 3069 ft | 263 kts | 166° |
| 2026-03-22 23:35 | 18.64537 | -68.58462 | 3013 ft | 250 kts | 166° |
| 2026-03-22 23:35 | 18.62855 | -68.58052 | 3028 ft | 250 kts | 166° |
| 2026-03-22 23:36 | 18.61183 | -68.57644 | 3023 ft | 242 kts | 165° |
| 2026-03-22 23:36 | 18.60298 | -68.57408 | 3020 ft | 235 kts | 163° |
| 2026-03-22 23:36 | 18.59349 | -68.57136 | 3011 ft | 226 kts | 163° |
| 2026-03-22 23:37 | 18.57844 | -68.56693 | 3027 ft | 230 kts | 163° |
| 2026-03-22 23:37 | 18.56314 | -68.56238 | 3033 ft | 227 kts | 162° |
| 2026-03-22 23:37 | 18.54874 | -68.55812 | 2994 ft | 202 kts | 162° |
| 2026-03-22 23:37 | 18.54503 | -68.55690 | 2984 ft | 196 kts | 159° |
| 2026-03-22 23:38 | 18.53841 | -68.55353 | 2911 ft | 180 kts | 142° |
| 2026-03-22 23:38 | 18.53211 | -68.54384 | 2809 ft | 155 kts | 95° |
| 2026-03-22 23:39 | 18.53337 | -68.53297 | 3238 ft | 155 kts | 72° |
| 2026-03-22 23:39 | 18.53606 | -68.52142 | 3278 ft | 160 kts | 75° |
| 2026-03-22 23:39 | 18.53671 | -68.50970 | 3070 ft | 161 kts | 84° |
| 2026-03-22 23:39 | 18.53806 | -68.49797 | 2721 ft | 156 kts | 77° |
| 2026-03-22 23:40 | 18.54041 | -68.48684 | 2453 ft | 156 kts | 73° |
| 2026-03-22 23:40 | 18.54350 | -68.47609 | 2187 ft | 152 kts | 70° |
| 2026-03-22 23:40 | 18.54697 | -68.46547 | 1932 ft | 152 kts | 67° |
| 2026-03-22 23:40 | 18.55038 | -68.45493 | 1690 ft | 152 kts | 70° |
| 2026-03-22 23:41 | 18.55311 | -68.44414 | 1463 ft | 152 kts | 71° |
| 2026-03-22 23:41 | 18.55611 | -68.43325 | 1257 ft | 153 kts | 69° |
| 2026-03-22 23:41 | 18.55920 | -68.42246 | 948 ft | 151 kts | 69° |
| 2026-03-22 23:41 | 18.56224 | -68.41187 | 674 ft | 150 kts | 70° |
| 2026-03-22 23:42 | 18.56485 | -68.40098 | 478 ft | 154 kts | 72° |
| 2026-03-22 23:42 | 18.56796 | -68.39032 | 265 ft | 155 kts | 67° |
| 2026-03-22 23:42 | 18.57116 | -68.37981 | 68 ft | 144 kts | 72° |
| 2026-03-22 23:42 | 18.57349 | -68.37123 | 57 ft | 91 kts | 72° |
| 2026-03-22 23:43 | 18.57488 | -68.36641 | 53 ft | 62 kts | 74° |
| 2026-03-22 23:43 | 18.57607 | -68.36224 | 52 ft | 52 kts | 74° |
| 2026-03-22 23:43 | 18.57701 | -68.35867 | 53 ft | 49 kts | 73° |
| 2026-03-22 23:43 | 18.57757 | -68.35628 | 51 ft | 26 kts | 77° |
| 2026-03-22 23:44 | 18.57774 | -68.35485 | 55 ft | 5 kts | 118° |
| 2026-03-22 23:44 | 18.57763 | -68.35479 | 52 ft | 1 kts | 161° |
| 2026-03-22 23:44 | 18.57750 | -68.35477 | 55 ft | 4 kts | 167° |
| 2026-03-22 23:44 | 18.57700 | -68.35464 | 53 ft | 9 kts | 167° |
| 2026-03-22 23:45 | 18.57656 | -68.35464 | 53 ft | 3 kts | 195° |
| 2026-03-22 23:45 | 18.57648 | -68.35472 | 53 ft | 4 kts | 219° |
| 2026-03-22 23:45 | 18.57615 | -68.35508 | 51 ft | 5 kts | 238° |
| 2026-03-22 23:45 | 18.57608 | -68.35532 | 53 ft | 4 kts | 256° |
| 2026-03-22 23:46 | 18.57598 | -68.35577 | 52 ft | 8 kts | 256° |
| 2026-03-22 23:46 | 18.57580 | -68.35653 | 53 ft | 13 kts | 256° |
| 2026-03-22 23:46 | 18.57555 | -68.35756 | 54 ft | 17 kts | 255° |
| 2026-03-22 23:46 | 18.57517 | -68.35840 | 53 ft | 7 kts | 225° |
| 2026-03-22 23:47 | 18.57500 | -68.35846 | 51 ft | 2 kts | 188° |
| 2026-03-22 23:47 | 18.57483 | -68.35845 | 52 ft | 3 kts | 170° |
| 2026-03-22 23:47 | 18.57451 | -68.35840 | 55 ft | 7 kts | 172° |
| 2026-03-22 23:47 | 18.57392 | -68.35831 | 52 ft | 11 kts | 172° |
| 2026-03-22 23:48 | 18.57312 | -68.35827 | 57 ft | 13 kts | 179° |
| 2026-03-22 23:48 | 18.57209 | -68.35822 | 55 ft | 17 kts | 176° |
| 2026-03-22 23:48 | 18.57080 | -68.35816 | 56 ft | 21 kts | 178° |
| 2026-03-22 23:48 | 18.56960 | -68.35809 | 54 ft | 17 kts | 176° |
| 2026-03-22 23:49 | 18.56823 | -68.35800 | 52 ft | 22 kts | 176° |
| 2026-03-22 23:49 | 18.56745 | -68.35793 | 50 ft | 9 kts | 174° |
| 2026-03-22 23:49 | 18.56672 | -68.35785 | 55 ft | 12 kts | 174° |
| 2026-03-22 23:49 | 18.56591 | -68.35778 | 53 ft | 12 kts | 175° |
| 2026-03-22 23:50 | 18.56533 | -68.35781 | 52 ft | 0 kts | 194° |
| 2026-03-22 23:50 | 18.56530 | -68.35783 | 53 ft | 0 kts | 207° |
| 2026-03-22 23:50 | 18.56523 | -68.35789 | 55 ft | 2 kts | 216° |
| 2026-03-22 23:50 | 18.56514 | -68.35803 | 54 ft | 5 kts | 239° |
| 2026-03-22 23:51 | 18.56503 | -68.35875 | 52 ft | 12 kts | 267° |
| 2026-03-22 23:51 | 18.56498 | -68.35978 | 58 ft | 16 kts | 267° |
| 2026-03-22 23:51 | 18.56489 | -68.36107 | 56 ft | 19 kts | 262° |
| 2026-03-22 23:51 | 18.56481 | -68.36178 | 58 ft | 0 kts | 263° |
| 2026-03-22 23:52 | 18.56480 | -68.36188 | 58 ft | 0 kts | 263° |
| 2026-03-22 23:52 | 18.56476 | -68.36210 | 58 ft | 3 kts | 256° |
| 2026-03-22 23:52 | 18.56470 | -68.36216 | 53 ft | 1 kts | 222° |
| 2026-03-22 23:52 | 18.56463 | -68.36218 | 58 ft | 2 kts | 205° |
| 2026-03-22 23:53 | 18.56443 | -68.36224 | 51 ft | 3 kts | 189° |
| 2026-03-22 23:53 | 18.56427 | -68.36223 | 52 ft | 3 kts | 178° |
| 2026-03-22 23:53 | 18.56412 | -68.36223 | 54 ft | 1 kts | 175° |
| 2026-03-22 23:53 | 18.56393 | -68.36222 | 57 ft | 3 kts | 175° |
| 2026-03-22 23:54 | 18.56388 | -68.36221 | 56 ft | 0 kts | 176° |
| 2026-03-22 23:54 | 18.56391 | -68.36222 | 57 ft | 2 kts | 176° |
| 2026-03-22 23:54 | 18.56394 | -68.36222 | 57 ft | 1 kts | 175° |
| 2026-03-22 23:54 | 18.56389 | -68.36222 | 56 ft | 0 kts | 176° |